sensor_id;sensor_type;location;lat;lon;timestamp;P1;durP1;ratioP1;P2;durP2;ratioP2
75689;SDS011;64303;53.118;9.044;2022-11-15T00:01:21;23.05;;;16.02;;
75689;SDS011;64303;53.118;9.044;2022-11-15T00:04:07;20.55;;;14.25;;
75689;SDS011;64303;53.118;9.044;2022-11-15T00:06:54;24.55;;;16.02;;
75689;SDS011;64303;53.118;9.044;2022-11-15T00:09:39;23.20;;;15.57;;
75689;SDS011;64303;53.118;9.044;2022-11-15T00:12:26;19.92;;;15.63;;
75689;SDS011;64303;53.118;9.044;2022-11-15T00:15:12;22.10;;;14.13;;
75689;SDS011;64303;53.118;9.044;2022-11-15T00:17:57;22.67;;;16.25;;
75689;SDS011;64303;53.118;9.044;2022-11-15T00:20:42;23.92;;;16.40;;
75689;SDS011;64303;53.118;9.044;2022-11-15T00:23:29;22.90;;;13.73;;
75689;SDS011;64303;53.118;9.044;2022-11-15T00:29:00;23.40;;;15.23;;
75689;SDS011;64303;53.118;9.044;2022-11-15T00:31:45;20.15;;;14.43;;
75689;SDS011;64303;53.118;9.044;2022-11-15T00:34:31;20.27;;;14.52;;
75689;SDS011;64303;53.118;9.044;2022-11-15T00:37:16;19.77;;;13.25;;
75689;SDS011;64303;53.118;9.044;2022-11-15T00:40:03;20.58;;;13.98;;
75689;SDS011;64303;53.118;9.044;2022-11-15T00:42:50;22.33;;;15.05;;
75689;SDS011;64303;53.118;9.044;2022-11-15T00:45:35;20.92;;;14.48;;
75689;SDS011;64303;53.118;9.044;2022-11-15T00:48:20;17.23;;;12.15;;
75689;SDS011;64303;53.118;9.044;2022-11-15T00:51:06;22.05;;;15.00;;
75689;SDS011;64303;53.118;9.044;2022-11-15T00:53:51;23.15;;;15.07;;
75689;SDS011;64303;53.118;9.044;2022-11-15T00:56:38;17.98;;;13.75;;
75689;SDS011;64303;53.118;9.044;2022-11-15T00:59:23;24.80;;;15.63;;
75689;SDS011;64303;53.118;9.044;2022-11-15T01:02:09;22.42;;;15.20;;
75689;SDS011;64303;53.118;9.044;2022-11-15T01:04:54;22.52;;;15.85;;
75689;SDS011;64303;53.118;9.044;2022-11-15T01:07:40;21.60;;;13.90;;
75689;SDS011;64303;53.118;9.044;2022-11-15T01:10:25;24.13;;;16.50;;
75689;SDS011;64303;53.118;9.044;2022-11-15T01:13:12;22.55;;;16.27;;
75689;SDS011;64303;53.118;9.044;2022-11-15T01:15:57;22.10;;;14.80;;
75689;SDS011;64303;53.118;9.044;2022-11-15T01:18:43;20.40;;;12.70;;
75689;SDS011;64303;53.118;9.044;2022-11-15T01:21:29;22.92;;;14.98;;
75689;SDS011;64303;53.118;9.044;2022-11-15T01:24:14;20.38;;;14.18;;
75689;SDS011;64303;53.118;9.044;2022-11-15T01:26:59;20.95;;;15.07;;
75689;SDS011;64303;53.118;9.044;2022-11-15T01:29:46;22.95;;;15.35;;
75689;SDS011;64303;53.118;9.044;2022-11-15T01:32:32;21.88;;;15.52;;
75689;SDS011;64303;53.118;9.044;2022-11-15T01:35:17;23.38;;;17.00;;
75689;SDS011;64303;53.118;9.044;2022-11-15T01:38:04;21.25;;;13.75;;
75689;SDS011;64303;53.118;9.044;2022-11-15T01:40:49;22.75;;;13.20;;
75689;SDS011;64303;53.118;9.044;2022-11-15T01:43:35;22.67;;;15.43;;
75689;SDS011;64303;53.118;9.044;2022-11-15T01:46:25;22.45;;;14.30;;
75689;SDS011;64303;53.118;9.044;2022-11-15T01:49:14;23.40;;;14.55;;
75689;SDS011;64303;53.118;9.044;2022-11-15T01:52:03;21.45;;;14.48;;
75689;SDS011;64303;53.118;9.044;2022-11-15T01:54:49;21.98;;;15.43;;
75689;SDS011;64303;53.118;9.044;2022-11-15T01:57:37;23.02;;;16.23;;
75689;SDS011;64303;53.118;9.044;2022-11-15T02:00:22;25.88;;;16.05;;
75689;SDS011;64303;53.118;9.044;2022-11-15T02:03:09;26.48;;;15.75;;
75689;SDS011;64303;53.118;9.044;2022-11-15T02:05:55;20.00;;;13.65;;
75689;SDS011;64303;53.118;9.044;2022-11-15T02:08:40;26.95;;;14.38;;
75689;SDS011;64303;53.118;9.044;2022-11-15T02:11:25;22.98;;;13.50;;
75689;SDS011;64303;53.118;9.044;2022-11-15T02:14:11;21.15;;;14.23;;
75689;SDS011;64303;53.118;9.044;2022-11-15T02:16:58;21.85;;;15.68;;
75689;SDS011;64303;53.118;9.044;2022-11-15T02:19:53;22.25;;;13.35;;
75689;SDS011;64303;53.118;9.044;2022-11-15T02:22:58;22.48;;;16.23;;
75689;SDS011;64303;53.118;9.044;2022-11-15T02:25:53;19.67;;;14.73;;
75689;SDS011;64303;53.118;9.044;2022-11-15T02:28:44;19.85;;;12.50;;
75689;SDS011;64303;53.118;9.044;2022-11-15T02:31:36;19.00;;;13.25;;
75689;SDS011;64303;53.118;9.044;2022-11-15T02:34:28;20.60;;;14.02;;
75689;SDS011;64303;53.118;9.044;2022-11-15T02:37:16;23.05;;;14.30;;
75689;SDS011;64303;53.118;9.044;2022-11-15T02:40:06;19.42;;;11.85;;
75689;SDS011;64303;53.118;9.044;2022-11-15T02:42:57;21.63;;;13.07;;
75689;SDS011;64303;53.118;9.044;2022-11-15T02:46:06;21.70;;;14.90;;
75689;SDS011;64303;53.118;9.044;2022-11-15T02:48:56;17.02;;;13.40;;
75689;SDS011;64303;53.118;9.044;2022-11-15T02:51:42;17.95;;;14.15;;
75689;SDS011;64303;53.118;9.044;2022-11-15T02:54:30;19.95;;;13.82;;
75689;SDS011;64303;53.118;9.044;2022-11-15T02:57:17;19.33;;;12.55;;
75689;SDS011;64303;53.118;9.044;2022-11-15T03:00:05;17.83;;;13.02;;
75689;SDS011;64303;53.118;9.044;2022-11-15T03:02:57;20.05;;;12.93;;
75689;SDS011;64303;53.118;9.044;2022-11-15T03:05:53;22.98;;;14.25;;
75689;SDS011;64303;53.118;9.044;2022-11-15T03:08:44;19.92;;;15.02;;
75689;SDS011;64303;53.118;9.044;2022-11-15T03:11:36;22.65;;;15.48;;
75689;SDS011;64303;53.118;9.044;2022-11-15T03:14:25;23.50;;;14.20;;
75689;SDS011;64303;53.118;9.044;2022-11-15T03:17:15;20.55;;;12.55;;
75689;SDS011;64303;53.118;9.044;2022-11-15T03:20:02;19.05;;;12.82;;
75689;SDS011;64303;53.118;9.044;2022-11-15T03:22:50;18.50;;;12.80;;
75689;SDS011;64303;53.118;9.044;2022-11-15T03:25:39;16.15;;;11.55;;
75689;SDS011;64303;53.118;9.044;2022-11-15T03:28:28;17.60;;;13.32;;
75689;SDS011;64303;53.118;9.044;2022-11-15T03:31:15;17.63;;;11.93;;
75689;SDS011;64303;53.118;9.044;2022-11-15T03:34:21;20.85;;;14.35;;
75689;SDS011;64303;53.118;9.044;2022-11-15T03:37:09;18.92;;;13.57;;
75689;SDS011;64303;53.118;9.044;2022-11-15T03:39:58;18.15;;;12.43;;
75689;SDS011;64303;53.118;9.044;2022-11-15T03:45:31;17.15;;;12.88;;
75689;SDS011;64303;53.118;9.044;2022-11-15T03:48:21;18.20;;;11.85;;
75689;SDS011;64303;53.118;9.044;2022-11-15T03:51:09;19.65;;;13.85;;
75689;SDS011;64303;53.118;9.044;2022-11-15T03:53:54;18.55;;;13.15;;
75689;SDS011;64303;53.118;9.044;2022-11-15T03:56:41;20.63;;;14.77;;
75689;SDS011;64303;53.118;9.044;2022-11-15T03:59:26;19.10;;;13.50;;
75689;SDS011;64303;53.118;9.044;2022-11-15T04:02:13;19.38;;;13.50;;
75689;SDS011;64303;53.118;9.044;2022-11-15T04:04:58;18.35;;;11.77;;
75689;SDS011;64303;53.118;9.044;2022-11-15T04:07:44;19.63;;;13.00;;
75689;SDS011;64303;53.118;9.044;2022-11-15T04:10:29;19.58;;;12.57;;
75689;SDS011;64303;53.118;9.044;2022-11-15T04:13:16;18.98;;;12.60;;
75689;SDS011;64303;53.118;9.044;2022-11-15T04:16:02;19.60;;;13.13;;
75689;SDS011;64303;53.118;9.044;2022-11-15T04:18:47;20.30;;;11.75;;
75689;SDS011;64303;53.118;9.044;2022-11-15T04:21:53;18.85;;;13.27;;
75689;SDS011;64303;53.118;9.044;2022-11-15T04:24:52;17.08;;;11.68;;
75689;SDS011;64303;53.118;9.044;2022-11-15T04:27:37;23.10;;;13.35;;
75689;SDS011;64303;53.118;9.044;2022-11-15T04:30:25;17.95;;;15.77;;
75689;SDS011;64303;53.118;9.044;2022-11-15T04:33:10;18.85;;;14.10;;
75689;SDS011;64303;53.118;9.044;2022-11-15T04:35:55;14.60;;;10.98;;
75689;SDS011;64303;53.118;9.044;2022-11-15T04:38:58;17.45;;;12.35;;
75689;SDS011;64303;53.118;9.044;2022-11-15T04:41:44;19.13;;;11.70;;
75689;SDS011;64303;53.118;9.044;2022-11-15T04:44:29;16.67;;;11.98;;
75689;SDS011;64303;53.118;9.044;2022-11-15T04:47:15;15.50;;;11.18;;
75689;SDS011;64303;53.118;9.044;2022-11-15T04:50:01;17.80;;;12.68;;
75689;SDS011;64303;53.118;9.044;2022-11-15T04:52:50;13.93;;;10.63;;
75689;SDS011;64303;53.118;9.044;2022-11-15T04:55:35;14.93;;;11.20;;
75689;SDS011;64303;53.118;9.044;2022-11-15T04:58:21;16.52;;;11.30;;
75689;SDS011;64303;53.118;9.044;2022-11-15T05:01:07;15.80;;;10.32;;
75689;SDS011;64303;53.118;9.044;2022-11-15T05:03:54;16.10;;;12.52;;
75689;SDS011;64303;53.118;9.044;2022-11-15T05:06:57;17.10;;;10.93;;
75689;SDS011;64303;53.118;9.044;2022-11-15T05:09:43;13.73;;;10.45;;
75689;SDS011;64303;53.118;9.044;2022-11-15T05:12:28;14.18;;;10.75;;
75689;SDS011;64303;53.118;9.044;2022-11-15T05:15:13;16.23;;;10.43;;
75689;SDS011;64303;53.118;9.044;2022-11-15T05:17:59;20.38;;;11.43;;
75689;SDS011;64303;53.118;9.044;2022-11-15T05:20:46;13.25;;;10.52;;
75689;SDS011;64303;53.118;9.044;2022-11-15T05:23:31;14.23;;;9.52;;
75689;SDS011;64303;53.118;9.044;2022-11-15T05:26:17;14.27;;;9.48;;
75689;SDS011;64303;53.118;9.044;2022-11-15T05:29:03;13.40;;;9.80;;
75689;SDS011;64303;53.118;9.044;2022-11-15T05:31:48;14.65;;;10.48;;
75689;SDS011;64303;53.118;9.044;2022-11-15T05:34:34;12.85;;;9.95;;
75689;SDS011;64303;53.118;9.044;2022-11-15T05:37:21;16.33;;;9.10;;
75689;SDS011;64303;53.118;9.044;2022-11-15T05:40:06;11.90;;;8.90;;
75689;SDS011;64303;53.118;9.044;2022-11-15T05:42:53;12.30;;;9.63;;
75689;SDS011;64303;53.118;9.044;2022-11-15T05:45:38;14.93;;;10.05;;
75689;SDS011;64303;53.118;9.044;2022-11-15T05:48:24;14.32;;;9.48;;
75689;SDS011;64303;53.118;9.044;2022-11-15T05:51:09;13.35;;;10.45;;
75689;SDS011;64303;53.118;9.044;2022-11-15T05:53:56;12.05;;;9.18;;
75689;SDS011;64303;53.118;9.044;2022-11-15T05:56:42;12.80;;;11.27;;
75689;SDS011;64303;53.118;9.044;2022-11-15T05:59:29;13.70;;;11.23;;
75689;SDS011;64303;53.118;9.044;2022-11-15T06:02:15;11.88;;;10.65;;
75689;SDS011;64303;53.118;9.044;2022-11-15T06:05:00;13.88;;;10.80;;
75689;SDS011;64303;53.118;9.044;2022-11-15T06:07:46;13.82;;;8.70;;
75689;SDS011;64303;53.118;9.044;2022-11-15T06:13:19;13.32;;;9.73;;
75689;SDS011;64303;53.118;9.044;2022-11-15T06:16:05;15.68;;;10.57;;
75689;SDS011;64303;53.118;9.044;2022-11-15T06:18:50;13.10;;;10.07;;
75689;SDS011;64303;53.118;9.044;2022-11-15T06:21:36;12.80;;;10.30;;
75689;SDS011;64303;53.118;9.044;2022-11-15T06:24:22;15.43;;;10.77;;
75689;SDS011;64303;53.118;9.044;2022-11-15T06:27:09;15.32;;;10.43;;
75689;SDS011;64303;53.118;9.044;2022-11-15T06:29:55;14.00;;;10.32;;
75689;SDS011;64303;53.118;9.044;2022-11-15T06:32:41;14.40;;;10.43;;
75689;SDS011;64303;53.118;9.044;2022-11-15T06:35:26;15.57;;;9.70;;
75689;SDS011;64303;53.118;9.044;2022-11-15T06:38:11;14.23;;;9.35;;
75689;SDS011;64303;53.118;9.044;2022-11-15T06:41:00;13.65;;;8.30;;
75689;SDS011;64303;53.118;9.044;2022-11-15T06:43:47;13.75;;;9.40;;
75689;SDS011;64303;53.118;9.044;2022-11-15T06:46:33;15.73;;;10.90;;
75689;SDS011;64303;53.118;9.044;2022-11-15T06:49:18;12.88;;;10.68;;
75689;SDS011;64303;53.118;9.044;2022-11-15T06:52:03;15.40;;;11.00;;
75689;SDS011;64303;53.118;9.044;2022-11-15T06:54:49;11.23;;;9.93;;
75689;SDS011;64303;53.118;9.044;2022-11-15T06:57:34;12.90;;;10.35;;
75689;SDS011;64303;53.118;9.044;2022-11-15T07:00:21;15.07;;;10.00;;
75689;SDS011;64303;53.118;9.044;2022-11-15T07:03:06;14.65;;;12.35;;
75689;SDS011;64303;53.118;9.044;2022-11-15T07:05:52;13.27;;;9.35;;
75689;SDS011;64303;53.118;9.044;2022-11-15T07:08:38;15.35;;;10.25;;
75689;SDS011;64303;53.118;9.044;2022-11-15T07:11:25;14.45;;;10.48;;
75689;SDS011;64303;53.118;9.044;2022-11-15T07:14:10;15.07;;;10.75;;
75689;SDS011;64303;53.118;9.044;2022-11-15T07:16:57;16.08;;;11.20;;
75689;SDS011;64303;53.118;9.044;2022-11-15T07:19:42;13.90;;;10.27;;
75689;SDS011;64303;53.118;9.044;2022-11-15T07:22:28;15.80;;;10.18;;
75689;SDS011;64303;53.118;9.044;2022-11-15T07:25:13;14.05;;;11.02;;
75689;SDS011;64303;53.118;9.044;2022-11-15T07:27:59;14.35;;;10.77;;
75689;SDS011;64303;53.118;9.044;2022-11-15T07:30:44;15.05;;;11.13;;
75689;SDS011;64303;53.118;9.044;2022-11-15T07:33:31;13.13;;;10.05;;
75689;SDS011;64303;53.118;9.044;2022-11-15T07:36:16;15.40;;;11.57;;
75689;SDS011;64303;53.118;9.044;2022-11-15T07:39:02;15.60;;;12.00;;
75689;SDS011;64303;53.118;9.044;2022-11-15T07:41:47;13.38;;;10.50;;
75689;SDS011;64303;53.118;9.044;2022-11-15T07:44:33;13.85;;;10.40;;
75689;SDS011;64303;53.118;9.044;2022-11-15T07:47:18;15.02;;;9.93;;
75689;SDS011;64303;53.118;9.044;2022-11-15T07:50:06;15.00;;;8.82;;
75689;SDS011;64303;53.118;9.044;2022-11-15T07:52:54;11.70;;;9.63;;
75689;SDS011;64303;53.118;9.044;2022-11-15T07:55:40;11.50;;;9.20;;
75689;SDS011;64303;53.118;9.044;2022-11-15T08:01:11;13.35;;;8.65;;
75689;SDS011;64303;53.118;9.044;2022-11-15T08:03:57;11.90;;;8.93;;
75689;SDS011;64303;53.118;9.044;2022-11-15T08:06:43;12.48;;;8.88;;
75689;SDS011;64303;53.118;9.044;2022-11-15T08:09:29;12.27;;;9.82;;
75689;SDS011;64303;53.118;9.044;2022-11-15T08:12:15;11.68;;;9.70;;
75689;SDS011;64303;53.118;9.044;2022-11-15T08:15:00;10.57;;;9.05;;
75689;SDS011;64303;53.118;9.044;2022-11-15T08:17:46;10.95;;;8.70;;
75689;SDS011;64303;53.118;9.044;2022-11-15T08:20:31;12.02;;;9.10;;
75689;SDS011;64303;53.118;9.044;2022-11-15T08:23:19;10.70;;;9.57;;
75689;SDS011;64303;53.118;9.044;2022-11-15T08:26:04;10.77;;;8.98;;
75689;SDS011;64303;53.118;9.044;2022-11-15T08:28:50;12.07;;;8.55;;
75689;SDS011;64303;53.118;9.044;2022-11-15T08:31:35;10.88;;;8.82;;
75689;SDS011;64303;53.118;9.044;2022-11-15T08:34:21;12.35;;;9.43;;
75689;SDS011;64303;53.118;9.044;2022-11-15T08:37:07;10.45;;;7.68;;
75689;SDS011;64303;53.118;9.044;2022-11-15T08:39:54;12.25;;;7.65;;
75689;SDS011;64303;53.118;9.044;2022-11-15T08:42:39;9.93;;;8.15;;
75689;SDS011;64303;53.118;9.044;2022-11-15T08:45:25;9.75;;;6.95;;
75689;SDS011;64303;53.118;9.044;2022-11-15T08:48:10;14.57;;;7.22;;
75689;SDS011;64303;53.118;9.044;2022-11-15T08:50:56;11.05;;;9.45;;
75689;SDS011;64303;53.118;9.044;2022-11-15T08:53:42;10.13;;;8.82;;
75689;SDS011;64303;53.118;9.044;2022-11-15T08:56:29;10.65;;;8.25;;
75689;SDS011;64303;53.118;9.044;2022-11-15T08:59:14;9.52;;;7.95;;
75689;SDS011;64303;53.118;9.044;2022-11-15T09:02:00;9.75;;;7.75;;
75689;SDS011;64303;53.118;9.044;2022-11-15T09:04:45;10.30;;;9.30;;
75689;SDS011;64303;53.118;9.044;2022-11-15T09:07:31;10.45;;;6.80;;
75689;SDS011;64303;53.118;9.044;2022-11-15T09:10:16;9.25;;;7.38;;
75689;SDS011;64303;53.118;9.044;2022-11-15T09:13:03;11.20;;;8.27;;
75689;SDS011;64303;53.118;9.044;2022-11-15T09:15:48;10.25;;;7.68;;
75689;SDS011;64303;53.118;9.044;2022-11-15T09:18:34;10.02;;;7.75;;
75689;SDS011;64303;53.118;9.044;2022-11-15T09:21:19;9.40;;;6.38;;
75689;SDS011;64303;53.118;9.044;2022-11-15T09:24:04;11.27;;;8.57;;
75689;SDS011;64303;53.118;9.044;2022-11-15T09:26:50;10.00;;;7.85;;
75689;SDS011;64303;53.118;9.044;2022-11-15T09:29:37;8.70;;;6.88;;
75689;SDS011;64303;53.118;9.044;2022-11-15T09:32:23;7.70;;;6.90;;
75689;SDS011;64303;53.118;9.044;2022-11-15T09:35:08;8.20;;;6.05;;
75689;SDS011;64303;53.118;9.044;2022-11-15T09:37:53;9.18;;;7.38;;
75689;SDS011;64303;53.118;9.044;2022-11-15T09:40:39;8.55;;;5.55;;
75689;SDS011;64303;53.118;9.044;2022-11-15T09:43:27;7.20;;;5.75;;
75689;SDS011;64303;53.118;9.044;2022-11-15T09:46:19;9.02;;;8.07;;
75689;SDS011;64303;53.118;9.044;2022-11-15T09:49:10;12.13;;;7.18;;
75689;SDS011;64303;53.118;9.044;2022-11-15T09:51:53;8.23;;;6.32;;
75689;SDS011;64303;53.118;9.044;2022-11-15T09:54:26;9.90;;;7.93;;
75689;SDS011;64303;53.118;9.044;2022-11-15T09:56:56;7.97;;;6.60;;
75689;SDS011;64303;53.118;9.044;2022-11-15T09:59:29;9.40;;;7.80;;
75689;SDS011;64303;53.118;9.044;2022-11-15T10:02:09;11.10;;;7.18;;
75689;SDS011;64303;53.118;9.044;2022-11-15T10:04:43;7.65;;;6.03;;
75689;SDS011;64303;53.118;9.044;2022-11-15T10:07:13;9.52;;;6.05;;
75689;SDS011;64303;53.118;9.044;2022-11-15T10:09:45;7.45;;;5.88;;
75689;SDS011;64303;53.118;9.044;2022-11-15T10:12:15;8.00;;;6.30;;
75689;SDS011;64303;53.118;9.044;2022-11-15T10:14:41;8.30;;;5.47;;
75689;SDS011;64303;53.118;9.044;2022-11-15T10:20:02;9.70;;;7.97;;
75689;SDS011;64303;53.118;9.044;2022-11-15T10:22:38;7.97;;;5.90;;
75689;SDS011;64303;53.118;9.044;2022-11-15T10:25:15;6.93;;;5.85;;
75689;SDS011;64303;53.118;9.044;2022-11-15T10:27:44;6.85;;;5.20;;
75689;SDS011;64303;53.118;9.044;2022-11-15T10:30:15;6.50;;;5.50;;
75689;SDS011;64303;53.118;9.044;2022-11-15T10:32:44;6.63;;;5.63;;
75689;SDS011;64303;53.118;9.044;2022-11-15T10:35:16;9.25;;;8.35;;
75689;SDS011;64303;53.118;9.044;2022-11-15T10:37:44;8.18;;;4.85;;
75689;SDS011;64303;53.118;9.044;2022-11-15T10:40:16;7.32;;;5.30;;
75689;SDS011;64303;53.118;9.044;2022-11-15T10:42:45;6.45;;;5.28;;
75689;SDS011;64303;53.118;9.044;2022-11-15T10:45:25;7.85;;;4.88;;
75689;SDS011;64303;53.118;9.044;2022-11-15T10:47:56;8.32;;;6.22;;
75689;SDS011;64303;53.118;9.044;2022-11-15T10:50:46;7.45;;;5.63;;
75689;SDS011;64303;53.118;9.044;2022-11-15T10:53:15;8.15;;;6.78;;
75689;SDS011;64303;53.118;9.044;2022-11-15T10:55:46;8.05;;;6.20;;
75689;SDS011;64303;53.118;9.044;2022-11-15T10:58:19;7.70;;;5.85;;
75689;SDS011;64303;53.118;9.044;2022-11-15T11:00:47;6.97;;;6.10;;
75689;SDS011;64303;53.118;9.044;2022-11-15T11:03:26;7.22;;;6.45;;
75689;SDS011;64303;53.118;9.044;2022-11-15T11:06:02;10.38;;;7.93;;
75689;SDS011;64303;53.118;9.044;2022-11-15T11:08:30;8.15;;;5.65;;
75689;SDS011;64303;53.118;9.044;2022-11-15T11:10:59;6.90;;;5.15;;
75689;SDS011;64303;53.118;9.044;2022-11-15T11:13:27;6.82;;;5.28;;
75689;SDS011;64303;53.118;9.044;2022-11-15T11:15:56;7.55;;;5.13;;
75689;SDS011;64303;53.118;9.044;2022-11-15T11:18:32;6.82;;;5.78;;
75689;SDS011;64303;53.118;9.044;2022-11-15T11:21:02;10.73;;;6.20;;
75689;SDS011;64303;53.118;9.044;2022-11-15T11:23:36;9.00;;;6.57;;
75689;SDS011;64303;53.118;9.044;2022-11-15T11:26:13;8.27;;;5.55;;
75689;SDS011;64303;53.118;9.044;2022-11-15T11:28:48;8.40;;;7.43;;
75689;SDS011;64303;53.118;9.044;2022-11-15T11:31:23;6.53;;;4.55;;
75689;SDS011;64303;53.118;9.044;2022-11-15T11:33:57;6.18;;;4.70;;
75689;SDS011;64303;53.118;9.044;2022-11-15T11:36:32;6.95;;;4.80;;
75689;SDS011;64303;53.118;9.044;2022-11-15T11:39:08;6.47;;;4.78;;
75689;SDS011;64303;53.118;9.044;2022-11-15T11:41:46;7.35;;;5.13;;
75689;SDS011;64303;53.118;9.044;2022-11-15T11:44:18;8.98;;;6.15;;
75689;SDS011;64303;53.118;9.044;2022-11-15T11:46:53;5.70;;;4.40;;
75689;SDS011;64303;53.118;9.044;2022-11-15T11:49:25;7.75;;;4.63;;
75689;SDS011;64303;53.118;9.044;2022-11-15T11:51:55;5.88;;;4.10;;
75689;SDS011;64303;53.118;9.044;2022-11-15T11:54:29;6.32;;;3.92;;
75689;SDS011;64303;53.118;9.044;2022-11-15T11:59:36;9.55;;;4.15;;
75689;SDS011;64303;53.118;9.044;2022-11-15T12:02:09;6.60;;;4.32;;
75689;SDS011;64303;53.118;9.044;2022-11-15T12:04:43;6.10;;;4.65;;
75689;SDS011;64303;53.118;9.044;2022-11-15T12:07:13;6.60;;;4.40;;
75689;SDS011;64303;53.118;9.044;2022-11-15T12:09:43;6.28;;;4.22;;
75689;SDS011;64303;53.118;9.044;2022-11-15T12:12:13;5.40;;;4.18;;
75689;SDS011;64303;53.118;9.044;2022-11-15T12:14:45;6.38;;;4.40;;
75689;SDS011;64303;53.118;9.044;2022-11-15T12:17:13;6.55;;;4.90;;
75689;SDS011;64303;53.118;9.044;2022-11-15T12:19:42;5.50;;;4.15;;
75689;SDS011;64303;53.118;9.044;2022-11-15T12:24:37;7.05;;;4.60;;
75689;SDS011;64303;53.118;9.044;2022-11-15T12:27:09;5.07;;;3.63;;
75689;SDS011;64303;53.118;9.044;2022-11-15T12:29:42;6.00;;;4.38;;
75689;SDS011;64303;53.118;9.044;2022-11-15T12:32:16;6.28;;;5.25;;
75689;SDS011;64303;53.118;9.044;2022-11-15T12:35:02;6.10;;;4.53;;
75689;SDS011;64303;53.118;9.044;2022-11-15T12:37:34;6.07;;;4.72;;
75689;SDS011;64303;53.118;9.044;2022-11-15T12:40:22;6.18;;;4.03;;
75689;SDS011;64303;53.118;9.044;2022-11-15T12:43:32;6.38;;;5.28;;
75689;SDS011;64303;53.118;9.044;2022-11-15T12:46:10;6.93;;;4.15;;
75689;SDS011;64303;53.118;9.044;2022-11-15T12:54:50;5.05;;;2.85;;
75689;SDS011;64303;53.118;9.044;2022-11-15T12:57:25;7.30;;;4.82;;
75689;SDS011;64303;53.118;9.044;2022-11-15T12:59:56;6.70;;;4.05;;
75689;SDS011;64303;53.118;9.044;2022-11-15T13:02:26;4.90;;;3.50;;
75689;SDS011;64303;53.118;9.044;2022-11-15T13:04:55;4.70;;;3.95;;
75689;SDS011;64303;53.118;9.044;2022-11-15T13:07:56;5.55;;;3.72;;
75689;SDS011;64303;53.118;9.044;2022-11-15T13:10:29;5.15;;;4.20;;
75689;SDS011;64303;53.118;9.044;2022-11-15T13:12:57;6.63;;;4.32;;
75689;SDS011;64303;53.118;9.044;2022-11-15T13:15:35;5.95;;;4.18;;
75689;SDS011;64303;53.118;9.044;2022-11-15T13:18:25;5.97;;;3.13;;
75689;SDS011;64303;53.118;9.044;2022-11-15T13:20:54;9.52;;;8.82;;
75689;SDS011;64303;53.118;9.044;2022-11-15T13:23:22;6.93;;;3.65;;
75689;SDS011;64303;53.118;9.044;2022-11-15T13:26:05;4.95;;;3.70;;
75689;SDS011;64303;53.118;9.044;2022-11-15T13:28:36;5.00;;;3.35;;
75689;SDS011;64303;53.118;9.044;2022-11-15T13:31:14;4.70;;;2.45;;
75689;SDS011;64303;53.118;9.044;2022-11-15T13:33:48;3.78;;;2.58;;
75689;SDS011;64303;53.118;9.044;2022-11-15T13:36:15;4.18;;;3.28;;
75689;SDS011;64303;53.118;9.044;2022-11-15T13:38:54;5.00;;;4.50;;
75689;SDS011;64303;53.118;9.044;2022-11-15T13:41:23;4.57;;;4.18;;
75689;SDS011;64303;53.118;9.044;2022-11-15T13:43:52;4.20;;;2.78;;
75689;SDS011;64303;53.118;9.044;2022-11-15T13:46:20;3.75;;;2.97;;
75689;SDS011;64303;53.118;9.044;2022-11-15T13:48:50;4.50;;;3.95;;
75689;SDS011;64303;53.118;9.044;2022-11-15T13:51:20;4.43;;;3.38;;
75689;SDS011;64303;53.118;9.044;2022-11-15T13:53:53;6.68;;;5.28;;
75689;SDS011;64303;53.118;9.044;2022-11-15T13:56:23;4.55;;;4.15;;
75689;SDS011;64303;53.118;9.044;2022-11-15T13:58:52;5.18;;;3.88;;
75689;SDS011;64303;53.118;9.044;2022-11-15T14:01:20;4.70;;;3.75;;
75689;SDS011;64303;53.118;9.044;2022-11-15T14:03:52;6.00;;;3.50;;
75689;SDS011;64303;53.118;9.044;2022-11-15T14:06:21;4.57;;;3.65;;
75689;SDS011;64303;53.118;9.044;2022-11-15T14:09:04;4.82;;;4.07;;
75689;SDS011;64303;53.118;9.044;2022-11-15T14:11:51;7.03;;;4.53;;
75689;SDS011;64303;53.118;9.044;2022-11-15T14:14:20;4.47;;;3.88;;
75689;SDS011;64303;53.118;9.044;2022-11-15T14:16:48;5.63;;;3.97;;
75689;SDS011;64303;53.118;9.044;2022-11-15T14:19:37;5.72;;;3.88;;
75689;SDS011;64303;53.118;9.044;2022-11-15T14:22:08;7.03;;;4.38;;
75689;SDS011;64303;53.118;9.044;2022-11-15T14:24:44;4.85;;;3.45;;
75689;SDS011;64303;53.118;9.044;2022-11-15T14:27:16;4.45;;;3.80;;
75689;SDS011;64303;53.118;9.044;2022-11-15T14:29:44;5.68;;;2.60;;
75689;SDS011;64303;53.118;9.044;2022-11-15T14:32:12;5.60;;;3.72;;
75689;SDS011;64303;53.118;9.044;2022-11-15T14:34:39;5.68;;;3.45;;
75689;SDS011;64303;53.118;9.044;2022-11-15T14:37:08;7.47;;;4.07;;
75689;SDS011;64303;53.118;9.044;2022-11-15T14:39:44;5.18;;;3.50;;
75689;SDS011;64303;53.118;9.044;2022-11-15T14:44:38;5.53;;;4.00;;
75689;SDS011;64303;53.118;9.044;2022-11-15T14:47:04;6.03;;;5.30;;
75689;SDS011;64303;53.118;9.044;2022-11-15T14:49:31;5.45;;;4.85;;
75689;SDS011;64303;53.118;9.044;2022-11-15T14:51:57;7.88;;;3.63;;
75689;SDS011;64303;53.118;9.044;2022-11-15T14:54:24;5.28;;;4.55;;
75689;SDS011;64303;53.118;9.044;2022-11-15T14:56:52;6.30;;;4.95;;
75689;SDS011;64303;53.118;9.044;2022-11-15T14:59:19;7.65;;;6.05;;
75689;SDS011;64303;53.118;9.044;2022-11-15T15:01:45;5.10;;;4.47;;
75689;SDS011;64303;53.118;9.044;2022-11-15T15:04:12;5.97;;;3.67;;
75689;SDS011;64303;53.118;9.044;2022-11-15T15:06:39;5.72;;;4.20;;
75689;SDS011;64303;53.118;9.044;2022-11-15T15:09:05;5.45;;;4.03;;
75689;SDS011;64303;53.118;9.044;2022-11-15T15:11:32;4.90;;;4.32;;
75689;SDS011;64303;53.118;9.044;2022-11-15T15:14:00;5.18;;;4.15;;
75689;SDS011;64303;53.118;9.044;2022-11-15T15:16:27;5.45;;;4.40;;
75689;SDS011;64303;53.118;9.044;2022-11-15T15:18:54;7.30;;;4.53;;
75689;SDS011;64303;53.118;9.044;2022-11-15T15:21:21;5.63;;;4.50;;
75689;SDS011;64303;53.118;9.044;2022-11-15T15:23:49;9.23;;;5.10;;
75689;SDS011;64303;53.118;9.044;2022-11-15T15:26:16;10.73;;;4.97;;
75689;SDS011;64303;53.118;9.044;2022-11-15T15:28:42;12.75;;;5.43;;
75689;SDS011;64303;53.118;9.044;2022-11-15T15:31:11;8.90;;;4.60;;
75689;SDS011;64303;53.118;9.044;2022-11-15T15:33:38;11.20;;;4.35;;
75689;SDS011;64303;53.118;9.044;2022-11-15T15:36:05;10.90;;;6.35;;
75689;SDS011;64303;53.118;9.044;2022-11-15T15:38:34;10.82;;;5.20;;
75689;SDS011;64303;53.118;9.044;2022-11-15T15:41:00;12.15;;;5.07;;
75689;SDS011;64303;53.118;9.044;2022-11-15T15:43:28;7.03;;;4.75;;
75689;SDS011;64303;53.118;9.044;2022-11-15T15:45:54;6.25;;;5.47;;
75689;SDS011;64303;53.118;9.044;2022-11-15T15:48:23;7.28;;;5.10;;
75689;SDS011;64303;53.118;9.044;2022-11-15T15:53:16;6.15;;;3.78;;
75689;SDS011;64303;53.118;9.044;2022-11-15T15:55:43;5.07;;;3.55;;
75689;SDS011;64303;53.118;9.044;2022-11-15T15:58:10;5.85;;;4.70;;
75689;SDS011;64303;53.118;9.044;2022-11-15T16:00:36;5.32;;;4.47;;
75689;SDS011;64303;53.118;9.044;2022-11-15T16:03:04;7.60;;;4.03;;
75689;SDS011;64303;53.118;9.044;2022-11-15T16:05:32;6.60;;;5.75;;
75689;SDS011;64303;53.118;9.044;2022-11-15T16:07:58;6.43;;;4.75;;
75689;SDS011;64303;53.118;9.044;2022-11-15T16:10:26;7.55;;;5.43;;
75689;SDS011;64303;53.118;9.044;2022-11-15T16:12:54;5.80;;;5.22;;
75689;SDS011;64303;53.118;9.044;2022-11-15T16:15:22;5.00;;;4.50;;
75689;SDS011;64303;53.118;9.044;2022-11-15T16:20:24;7.43;;;4.95;;
75689;SDS011;64303;53.118;9.044;2022-11-15T16:22:59;5.85;;;4.22;;
75689;SDS011;64303;53.118;9.044;2022-11-15T16:25:25;5.70;;;5.10;;
75689;SDS011;64303;53.118;9.044;2022-11-15T16:27:52;6.30;;;4.88;;